Time;durP1;ratioP1;P1;durP2;ratioP2;P2;SDS_P1;SDS_P2;PMS_P1;PMS_P2;Temp;Humidity;BMP_temperature;BMP_pressure;BME280_temperature;BME280_humidity;BME280_pressure;Samples;Min_cycle;Max_cycle;Signal;HPM_P1;HPM_P2
2021/09/27 00:00:35;;;;;;;26.58;19.85;;;18.30;99.90;;;;;;5017269;28;20127;-77
2021/09/27 00:03:02;;;;;;;21.88;19.42;;;18.30;99.90;;;;;;5017207;28;20433;-77
2021/09/27 00:05:28;;;;;;;23.08;18.88;;;18.30;99.90;;;;;;5016682;28;20052;-77
2021/09/27 00:07:54;;;;;;;25.67;20.58;;;18.30;99.90;;;;;;5016090;28;20026;-77
2021/09/27 00:10:25;;;;;;;25.88;20.70;;;18.30;99.90;;;;;;5017778;28;20018;-77
2021/09/27 00:12:51;;;;;;;23.05;19.13;;;18.30;99.90;;;;;;5016112;28;20061;-78
2021/09/27 00:15:23;;;;;;;25.90;20.10;;;18.30;99.90;;;;;;5016548;28;20045;-77
2021/09/27 00:17:49;;;;;;;25.92;20.27;;;18.30;99.90;;;;;;5015896;28;20030;-78
2021/09/27 00:20:15;;;;;;;23.50;20.20;;;18.30;99.90;;;;;;5016472;28;20029;-77
2021/09/27 00:22:41;;;;;;;25.25;20.42;;;18.30;99.90;;;;;;5015711;28;20432;-77
2021/09/27 00:25:08;;;;;;;26.75;19.60;;;18.30;99.90;;;;;;5017445;28;20061;-78
2021/09/27 00:27:33;;;;;;;22.20;19.80;;;18.30;99.90;;;;;;5016405;28;20021;-78
2021/09/27 00:30:00;;;;;;;27.50;21.80;;;18.30;99.90;;;;;;5015475;28;20030;-78
2021/09/27 00:32:27;;;;;;;25.10;20.80;;;18.30;99.90;;;;;;5016349;28;20109;-78
2021/09/27 00:34:53;;;;;;;32.38;20.33;;;18.20;99.90;;;;;;5017175;28;20060;-77
2021/09/27 00:37:18;;;;;;;24.30;20.38;;;18.20;99.90;;;;;;5016392;28;20080;-78
2021/09/27 00:39:44;;;;;;;22.95;20.17;;;18.20;99.90;;;;;;5017067;28;20106;-78
2021/09/27 00:42:10;;;;;;;24.67;21.20;;;18.20;99.90;;;;;;5017673;28;20018;-77
2021/09/27 00:44:37;;;;;;;23.92;21.33;;;18.20;99.90;;;;;;5017283;28;20033;-77
2021/09/27 00:47:03;;;;;;;25.95;20.05;;;18.20;99.90;;;;;;5016654;28;20021;-77
2021/09/27 00:49:29;;;;;;;23.92;20.13;;;18.20;99.90;;;;;;5015058;28;20026;-78
2021/09/27 00:51:55;;;;;;;31.38;19.92;;;18.30;99.90;;;;;;5013342;28;20025;-76
2021/09/27 00:54:25;;;;;;;29.95;20.33;;;18.30;99.90;;;;;;5014210;28;20524;-77
2021/09/27 00:56:54;;;;;;;24.27;20.38;;;18.20;99.90;;;;;;5012453;28;20026;-77
2021/09/27 00:59:24;;;;;;;26.45;20.23;;;18.20;99.90;;;;;;5012390;28;20081;-76
2021/09/27 01:01:50;;;;;;;25.42;21.45;;;18.20;99.90;;;;;;5012272;28;20467;-76
2021/09/27 01:04:16;;;;;;;25.58;20.55;;;18.10;99.90;;;;;;5012778;28;20037;-77
2021/09/27 01:06:59;;;;;;;22.73;20.00;;;18.10;99.90;;;;;;5012362;28;20489;-79
2021/09/27 01:09:32;;;;;;;24.02;19.98;;;18.20;99.90;;;;;;5012888;28;20018;-77
2021/09/27 01:12:22;;;;;;;25.92;20.73;;;18.10;99.90;;;;;;5013873;28;20082;-76
2021/09/27 01:14:54;;;;;;;23.23;19.58;;;18.00;99.90;;;;;;5012211;28;20048;-77
2021/09/27 01:17:38;;;;;;;25.63;20.58;;;18.00;99.90;;;;;;5013964;28;20026;-77
2021/09/27 01:20:24;;;;;;;26.50;20.77;;;18.10;99.90;;;;;;5013056;28;20030;-76
2021/09/27 01:23:11;;;;;;;28.60;22.38;;;18.10;99.90;;;;;;5013167;28;20111;-77
2021/09/27 01:25:55;;;;;;;32.08;23.33;;;18.00;99.90;;;;;;5013653;28;20057;-77
2021/09/27 01:28:27;;;;;;;31.13;22.35;;;18.00;99.90;;;;;;5013373;28;20088;-77
2021/09/27 01:31:16;;;;;;;31.00;23.17;;;17.80;99.90;;;;;;5012844;28;20017;-76
2021/09/27 01:33:58;;;;;;;29.73;24.02;;;17.70;99.90;;;;;;5011725;28;20032;-76
2021/09/27 01:36:44;;;;;;;32.30;24.40;;;17.70;99.90;;;;;;5012450;28;20428;-77
2021/09/27 01:39:28;;;;;;;36.20;23.27;;;17.60;99.90;;;;;;5012022;28;20034;-77
2021/09/27 01:42:12;;;;;;;35.58;24.30;;;17.70;99.90;;;;;;5011204;28;20117;-77
2021/09/27 01:45:01;;;;;;;30.70;24.10;;;17.70;99.90;;;;;;5013031;28;20062;-77
2021/09/27 01:47:53;;;;;;;34.55;24.05;;;17.70;99.90;;;;;;5011853;28;20100;-77
2021/09/27 01:50:24;;;;;;;29.75;23.15;;;17.60;99.90;;;;;;5013043;28;20030;-77
2021/09/27 01:52:53;;;;;;;31.83;25.00;;;17.60;99.90;;;;;;5012621;28;20347;-77
2021/09/27 01:55:44;;;;;;;32.92;24.05;;;17.60;99.90;;;;;;5012909;28;20030;-77
2021/09/27 01:58:21;;;;;;;34.20;26.00;;;17.60;99.90;;;;;;5005790;28;20358;-76
2021/09/27 02:00:55;;;;;;;36.05;24.40;;;17.50;99.90;;;;;;5010966;28;20347;-78
2021/09/27 02:03:31;;;;;;;38.35;25.88;;;17.60;99.90;;;;;;5011759;28;20030;-77
2021/09/27 02:06:06;;;;;;;39.25;25.80;;;17.60;99.90;;;;;;5012403;28;20375;-77
2021/09/27 02:08:47;;;;;;;42.33;27.45;;;17.70;99.90;;;;;;5012602;28;20029;-77
2021/09/27 02:11:20;;;;;;;40.85;26.63;;;17.60;99.90;;;;;;5011413;28;20105;-77
2021/09/27 02:14:06;;;;;;;38.75;26.40;;;17.50;99.90;;;;;;5010957;28;20034;-77
2021/09/27 02:16:54;;;;;;;40.05;25.45;;;17.50;99.90;;;;;;5011513;28;20022;-77
2021/09/27 02:19:30;;;;;;;40.38;27.33;;;17.50;99.90;;;;;;5012848;28;20367;-77
2021/09/27 02:22:05;;;;;;;37.72;25.00;;;17.50;99.90;;;;;;5010639;28;20040;-77
2021/09/27 02:24:36;;;;;;;36.72;26.42;;;17.40;99.90;;;;;;5010972;28;20026;-77
2021/09/27 02:27:02;;;;;;;39.00;25.40;;;17.50;99.90;;;;;;5012084;28;20427;-77
2021/09/27 02:29:28;;;;;;;35.65;24.88;;;17.50;99.90;;;;;;5012262;28;20037;-77
2021/09/27 02:32:06;;;;;;;39.17;26.15;;;17.60;99.90;;;;;;5010600;28;20156;-77
2021/09/27 02:35:02;;;;;;;37.60;26.67;;;17.50;99.90;;;;;;5010931;28;20059;-77
2021/09/27 02:37:39;;;;;;;37.25;25.35;;;17.40;99.90;;;;;;5011348;28;20355;-77
2021/09/27 02:40:26;;;;;;;39.75;26.50;;;17.30;99.90;;;;;;5010497;28;20461;-77
2021/09/27 02:42:58;;;;;;;37.55;25.60;;;17.40;99.90;;;;;;5010491;28;20033;-77
2021/09/27 02:45:25;;;;;;;35.35;24.67;;;17.30;99.90;;;;;;5011958;28;20112;-76
2021/09/27 02:48:28;;;;;;;31.25;22.77;;;17.40;99.90;;;;;;5011589;28;20056;-76
2021/09/27 02:50:54;;;;;;;42.75;25.27;;;17.40;99.90;;;;;;5010204;28;20137;-77
2021/09/27 02:53:21;;;;;;;39.42;25.45;;;17.20;99.90;;;;;;5010571;28;20506;-76
2021/09/27 02:56:21;;;;;;;31.52;23.85;;;17.20;99.90;;;;;;5011478;28;20424;-77
2021/09/27 02:58:47;;;;;;;34.75;23.45;;;17.30;99.90;;;;;;5009824;28;20079;-77
2021/09/27 03:01:55;;;;;;;36.38;23.75;;;17.30;99.90;;;;;;5011746;28;20034;-77
2021/09/27 03:04:34;;;;;;;32.20;23.35;;;17.10;99.90;;;;;;5012197;28;20049;-77
2021/09/27 03:07:09;;;;;;;34.45;22.13;;;17.10;99.90;;;;;;5009879;28;20029;-77
2021/09/27 03:10:12;;;;;;;33.35;22.58;;;17.10;99.90;;;;;;5010449;28;20409;-77
2021/09/27 03:13:08;;;;;;;32.03;22.23;;;17.20;99.90;;;;;;5009991;28;20022;-77
2021/09/27 03:16:11;;;;;;;35.05;23.15;;;17.20;99.90;;;;;;5010430;28;20112;-76
2021/09/27 03:18:49;;;;;;;30.10;21.48;;;17.10;99.90;;;;;;4999195;28;20034;-77
2021/09/27 03:21:23;;;;;;;29.33;22.98;;;17.20;99.90;;;;;;5010815;28;20022;-77
2021/09/27 03:24:33;;;;;;;35.42;24.00;;;17.20;99.90;;;;;;5009724;28;20029;-77
2021/09/27 03:27:19;;;;;;;41.72;24.35;;;17.30;99.90;;;;;;4972819;28;20034;-77
2021/09/27 03:29:51;;;;;;;31.92;23.55;;;17.30;99.90;;;;;;4989747;28;20100;-76
2021/09/27 03:32:22;;;;;;;;;;;17.30;99.90;;;;;;4973814;28;20026;-76
2021/09/27 03:34:56;;;;;;;37.92;23.13;;;17.40;99.90;;;;;;4989231;28;20354;-77
2021/09/27 03:37:28;;;;;;;53.80;24.33;;;17.40;99.90;;;;;;4989089;28;20026;-77
2021/09/27 03:40:20;;;;;;;32.95;23.05;;;17.30;99.90;;;;;;4990366;28;20485;-77
2021/09/27 03:43:18;;;;;;;33.72;22.42;;;17.30;99.90;;;;;;4974010;28;20034;-77
2021/09/27 03:45:50;;;;;;;32.05;21.40;;;17.20;99.90;;;;;;4989505;28;20041;-77
2021/09/27 03:48:24;;;;;;;30.75;21.45;;;17.20;99.90;;;;;;4973034;28;20096;-78
2021/09/27 03:50:56;;;;;;;32.05;21.50;;;17.10;99.90;;;;;;4972463;28;20033;-77
2021/09/27 03:53:45;;;;;;;30.90;21.02;;;17.10;99.90;;;;;;4989367;28;20034;-78
2021/09/27 03:56:18;;;;;;;30.73;20.83;;;17.20;99.90;;;;;;4988655;28;20121;-78
2021/09/27 03:58:57;;;;;;;30.42;20.95;;;17.20;99.90;;;;;;4972677;28;20079;-78
2021/09/27 04:01:37;;;;;;;29.27;20.77;;;17.20;99.90;;;;;;4973150;28;20114;-78
2021/09/27 04:04:22;;;;;;;32.30;22.03;;;17.30;99.90;;;;;;5009256;28;20026;-78
2021/09/27 04:07:07;;;;;;;35.35;22.92;;;17.30;99.90;;;;;;5009890;28;20780;-78
2021/09/27 04:09:59;;;;;;;29.05;21.60;;;17.30;99.90;;;;;;5011051;28;20378;-79
2021/09/27 04:12:45;;;;;;;30.50;21.45;;;17.20;99.90;;;;;;5011157;28;20026;-79
2021/09/27 04:15:31;;;;;;;32.72;21.67;;;17.20;99.90;;;;;;5001735;28;20288;-79
2021/09/27 04:18:20;;;;;;;33.63;22.30;;;17.00;99.90;;;;;;5009271;28;20022;-79
2021/09/27 04:21:07;;;;;;;37.92;23.10;;;17.10;99.90;;;;;;5011170;28;20117;-79
2021/09/27 04:24:00;;;;;;;38.20;22.38;;;17.10;99.90;;;;;;5009870;28;20022;-78
2021/09/27 04:27:19;;;;;;;35.85;22.25;;;17.10;99.90;;;;;;5012333;28;20030;-79
2021/09/27 04:29:54;;;;;;;37.25;22.92;;;17.10;99.90;;;;;;4976313;28;20470;-78
2021/09/27 04:32:29;;;;;;;37.58;22.38;;;17.00;99.90;;;;;;4976289;28;20038;-77
2021/09/27 04:35:19;;;;;;;35.50;24.13;;;16.80;99.90;;;;;;4975568;28;20030;-78
2021/09/27 04:37:46;;;;;;;35.42;24.52;;;16.80;99.90;;;;;;4975997;28;20022;-78
2021/09/27 04:40:16;;;;;;;30.05;21.27;;;16.70;99.90;;;;;;4991998;28;20117;-78
2021/09/27 04:43:19;;;;;;;29.88;21.20;;;16.90;99.90;;;;;;4976277;28;20117;-78
2021/09/27 04:46:04;;;;;;;33.22;21.23;;;16.90;99.90;;;;;;4956280;28;20514;-79
2021/09/27 04:48:52;;;;;;;30.52;22.08;;;16.90;99.90;;;;;;4992269;28;20531;-78
2021/09/27 04:51:48;;;;;;;38.40;23.30;;;17.00;99.90;;;;;;4975301;28;20022;-78
2021/09/27 04:54:14;;;;;;;31.55;21.10;;;17.00;99.90;;;;;;4975058;28;20042;-79
2021/09/27 04:57:19;;;;;;;29.48;21.52;;;17.00;99.90;;;;;;4975799;28;20033;-79
2021/09/27 05:00:06;;;;;;;33.45;20.63;;;17.00;99.90;;;;;;4983987;28;20046;-78
2021/09/27 05:02:44;;;;;;;31.70;20.77;;;16.90;99.90;;;;;;5014024;28;20172;-78
2021/09/27 05:05:30;;;;;;;27.88;18.73;;;16.90;99.90;;;;;;5011827;28;20026;-78
2021/09/27 05:08:21;;;;;;;25.40;18.00;;;17.00;99.90;;;;;;5013478;28;20109;-78
2021/09/27 05:11:05;;;;;;;31.58;20.38;;;16.90;99.90;;;;;;5013695;28;20060;-79
2021/09/27 05:13:45;;;;;;;31.13;20.83;;;16.90;99.90;;;;;;5013867;28;20045;-78
2021/09/27 05:16:38;;;;;;;30.88;20.50;;;16.90;99.90;;;;;;5013529;28;20049;-78
2021/09/27 05:19:46;;;;;;;29.33;20.67;;;16.90;99.90;;;;;;5013555;28;20447;-78
2021/09/27 05:22:14;;;;;;;30.30;22.30;;;17.00;99.90;;;;;;5012152;28;20116;-79
2021/09/27 05:25:09;;;;;;;32.80;22.25;;;17.00;99.90;;;;;;5012166;28;20037;-79
2021/09/27 05:27:55;;;;;;;34.03;22.45;;;17.00;99.90;;;;;;5011889;28;20030;-79
2021/09/27 05:30:40;;;;;;;37.53;23.10;;;16.90;99.90;;;;;;5012672;28;20120;-79
2021/09/27 05:33:18;;;;;;;31.60;22.23;;;16.90;99.90;;;;;;5013420;28;20018;-79
2021/09/27 05:35:58;;;;;;;33.10;22.63;;;17.00;99.90;;;;;;5012280;28;20022;-79
2021/09/27 05:38:52;;;;;;;33.60;22.80;;;17.00;99.90;;;;;;5012499;28;20033;-79
2021/09/27 05:41:52;;;;;;;33.35;22.33;;;16.80;99.90;;;;;;5011951;28;20026;-78
2021/09/27 05:44:36;;;;;;;34.05;22.10;;;16.90;99.90;;;;;;5001471;28;20095;-78
2021/09/27 05:47:30;;;;;;;33.38;21.25;;;17.00;99.90;;;;;;5011769;28;20112;-78
2021/09/27 05:50:14;;;;;;;33.10;22.67;;;17.10;99.90;;;;;;5012162;28;20393;-79
2021/09/27 05:52:48;;;;;;;29.50;21.20;;;17.00;99.90;;;;;;5013309;28;20025;-80
2021/09/27 05:55:20;;;;;;;30.70;20.77;;;16.90;99.90;;;;;;5012755;28;20382;-78
2021/09/27 05:58:01;;;;;;;27.58;20.02;;;17.00;99.90;;;;;;5011523;28;20124;-80
2021/09/27 06:01:04;;;;;;;27.73;19.42;;;16.90;99.90;;;;;;5013843;28;20042;-80
2021/09/27 06:03:50;;;;;;;30.23;20.90;;;16.80;99.90;;;;;;5011559;28;20022;-79
2021/09/27 06:06:42;;;;;;;29.95;19.30;;;16.90;99.90;;;;;;5011972;28;20112;-79
2021/09/27 06:09:28;;;;;;;31.35;20.30;;;17.00;99.90;;;;;;4994953;28;20113;-79
2021/09/27 06:12:08;;;;;;;27.73;18.50;;;16.90;99.90;;;;;;5012617;28;20363;-80
2021/09/27 06:14:35;;;;;;;26.00;18.13;;;16.80;99.90;;;;;;5011159;28;20032;-79
2021/09/27 06:17:19;;;;;;;31.67;19.13;;;16.70;99.90;;;;;;5010403;28;20366;-79
2021/09/27 06:19:53;;;;;;;27.90;18.20;;;16.80;99.90;;;;;;5012122;28;20379;-75
2021/09/27 06:22:46;;;;;;;30.00;19.20;;;17.00;99.90;;;;;;5003539;28;20190;-75
2021/09/27 06:25:16;;;;;;;23.10;17.42;;;17.10;99.90;;;;;;4998449;28;20380;-75
2021/09/27 06:27:48;;;;;;;25.05;17.35;;;17.10;99.90;;;;;;5004813;28;20018;-78
2021/09/27 06:30:22;;;;;;;24.05;17.55;;;17.10;99.90;;;;;;5010038;28;20056;-75
2021/09/27 06:33:15;;;;;;;22.90;15.73;;;17.10;99.90;;;;;;5011938;28;20026;-76
2021/09/27 06:35:43;;;;;;;20.95;16.17;;;17.20;99.90;;;;;;5010959;28;20129;-63
2021/09/27 06:38:12;;;;;;;27.92;17.75;;;17.60;99.90;;;;;;5002376;28;20124;-64
2021/09/27 06:40:48;;;;;;;22.50;15.95;;;17.40;99.90;;;;;;5005423;28;20025;-62
2021/09/27 06:43:19;;;;;;;22.63;16.95;;;17.80;99.90;;;;;;4999971;28;20079;-62
2021/09/27 06:45:46;;;;;;;25.45;18.75;;;17.70;99.90;;;;;;5012198;28;20432;-78
2021/09/27 06:48:13;;;;;;;24.50;17.50;;;17.40;99.90;;;;;;5010031;28;20018;-78
2021/09/27 06:50:38;;;;;;;24.73;16.83;;;17.20;99.90;;;;;;5011585;28;20026;-78
2021/09/27 06:53:04;;;;;;;23.73;16.98;;;17.00;99.90;;;;;;5009882;28;20022;-79
2021/09/27 06:55:29;;;;;;;25.45;17.58;;;16.90;99.90;;;;;;5010298;28;20429;-79
2021/09/27 06:57:55;;;;;;;26.48;18.30;;;16.80;99.90;;;;;;5009733;28;20037;-78
2021/09/27 07:00:22;;;;;;;27.38;19.42;;;17.00;99.90;;;;;;5009457;28;20053;-77
2021/09/27 07:02:48;;;;;;;22.80;18.98;;;16.50;99.90;;;;;;5010977;28;20026;-72
2021/09/27 07:05:13;;;;;;;28.55;20.15;;;16.60;99.90;;;;;;5010503;28;20325;-76
2021/09/27 07:07:40;;;;;;;28.98;19.38;;;16.70;99.90;;;;;;5011175;28;20029;-77
2021/09/27 07:10:09;;;;;;;25.63;18.60;;;17.00;99.90;;;;;;5010677;28;20425;-76
2021/09/27 07:12:35;;;;;;;24.60;17.20;;;16.80;99.90;;;;;;5009663;28;20032;-76
2021/09/27 07:15:02;;;;;;;25.23;18.45;;;16.70;99.90;;;;;;5009720;28;20025;-77
2021/09/27 07:17:28;;;;;;;24.83;16.45;;;16.80;99.90;;;;;;5010080;28;20021;-77
2021/09/27 07:19:53;;;;;;;24.63;17.83;;;17.00;99.90;;;;;;5009924;28;20491;-77
2021/09/27 07:22:19;;;;;;;24.05;17.17;;;17.00;99.90;;;;;;5025887;28;20041;-76
2021/09/27 07:24:45;;;;;;;24.00;17.42;;;17.00;99.90;;;;;;5009648;28;20026;-77
2021/09/27 07:27:11;;;;;;;26.17;18.60;;;17.10;99.90;;;;;;5009445;28;20045;-78
2021/09/27 07:29:38;;;;;;;28.02;18.92;;;17.00;99.90;;;;;;5011416;28;20018;-76
2021/09/27 07:32:04;;;;;;;25.25;18.60;;;17.10;99.90;;;;;;5017607;28;20037;-78
2021/09/27 07:34:30;;;;;;;28.05;17.80;;;17.10;99.90;;;;;;4998781;28;20112;-77
2021/09/27 07:36:57;;;;;;;24.85;17.80;;;17.10;99.90;;;;;;5003514;28;20053;-77
2021/09/27 07:39:23;;;;;;;27.00;18.50;;;17.20;99.90;;;;;;4999891;28;20285;-79
2021/09/27 07:41:50;;;;;;;26.65;17.52;;;17.20;99.90;;;;;;4997067;28;20451;-77
2021/09/27 07:44:16;;;;;;;29.05;19.33;;;17.30;99.90;;;;;;4998471;28;20030;-78
2021/09/27 07:46:42;;;;;;;29.08;19.35;;;17.50;99.90;;;;;;4995182;28;20122;-77
2021/09/27 07:49:08;;;;;;;28.15;19.58;;;17.40;99.90;;;;;;4990372;28;20097;-78
2021/09/27 07:51:34;;;;;;;29.23;21.58;;;17.50;99.90;;;;;;4993893;28;20021;-77
2021/09/27 07:54:00;;;;;;;25.40;18.35;;;17.50;99.90;;;;;;5000402;28;20436;-74
2021/09/27 07:56:26;;;;;;;19.52;14.68;;;17.80;99.90;;;;;;4991210;28;20110;-48
2021/09/27 07:58:51;;;;;;;20.50;15.27;;;18.30;99.90;;;;;;5002702;28;20128;-53
2021/09/27 08:01:17;;;;;;;16.08;12.13;;;18.70;99.90;;;;;;5014343;28;20088;-49
2021/09/27 08:03:43;;;;;;;23.63;17.33;;;18.60;99.90;;;;;;5013720;28;20034;-78
2021/09/27 08:06:09;;;;;;;22.27;16.10;;;18.60;99.90;;;;;;5014820;28;20451;-77
2021/09/27 08:08:35;;;;;;;22.40;16.80;;;18.40;99.90;;;;;;5014138;28;20026;-79
2021/09/27 08:11:01;;;;;;;24.10;18.08;;;18.20;99.90;;;;;;5014004;28;20156;-78
2021/09/27 08:13:27;;;;;;;22.05;16.65;;;17.90;99.90;;;;;;5009965;28;20486;-80
2021/09/27 08:15:54;;;;;;;21.25;16.13;;;17.80;99.90;;;;;;4994311;28;20363;-78
2021/09/27 08:18:22;;;;;;;21.27;17.00;;;17.70;99.90;;;;;;4995735;28;20068;-78
2021/09/27 08:20:53;;;;;;;22.67;16.40;;;17.60;99.90;;;;;;5035450;28;20032;-76
2021/09/27 08:23:20;;;;;;;24.75;16.92;;;17.60;99.90;;;;;;5012633;28;20033;-78
2021/09/27 08:25:46;;;;;;;29.10;17.30;;;17.80;99.90;;;;;;5013202;28;20041;-77
2021/09/27 08:28:15;;;;;;;28.60;19.65;;;17.80;99.90;;;;;;5013881;28;20474;-79
2021/09/27 08:30:45;;;;;;;26.38;19.50;;;17.90;99.90;;;;;;5012645;28;20463;-78
2021/09/27 08:33:11;;;;;;;28.42;20.05;;;18.10;99.90;;;;;;5012647;28;20018;-78
2021/09/27 08:35:38;;;;;;;24.38;18.50;;;18.30;99.90;;;;;;5012334;28;20022;-79
2021/09/27 08:38:06;;;;;;;25.25;18.42;;;18.20;99.90;;;;;;5012610;28;20053;-79
2021/09/27 08:40:32;;;;;;;26.50;18.55;;;18.10;99.90;;;;;;5013733;28;20455;-80
2021/09/27 08:43:11;;;;;;;21.73;15.98;;;18.10;99.90;;;;;;4995486;28;20150;-79
2021/09/27 08:45:37;;;;;;;27.80;18.15;;;17.90;99.90;;;;;;4993168;28;20141;-79
2021/09/27 08:48:28;;;;;;;29.45;18.83;;;18.00;99.90;;;;;;4994718;28;20144;-79
2021/09/27 08:50:53;;;;;;;23.33;16.48;;;18.30;99.90;;;;;;4993401;28;20030;-80
2021/09/27 08:53:33;;;;;;;16.92;13.52;;;18.90;99.90;;;;;;5005970;28;20030;-76
2021/09/27 08:56:21;;;;;;;20.25;13.35;;;19.20;99.90;;;;;;5014397;28;20030;-77
2021/09/27 08:59:06;;;;;;;16.13;12.60;;;19.10;99.90;;;;;;5012195;28;20132;-76
2021/09/27 09:01:51;;;;;;;14.90;12.38;;;19.10;99.90;;;;;;5011828;28;20509;-80
2021/09/27 09:04:28;;;;;;;15.60;11.77;;;19.20;99.90;;;;;;5012150;28;20427;-74
2021/09/27 09:07:01;;;;;;;17.63;12.32;;;19.00;99.90;;;;;;5012769;28;20034;-76
2021/09/27 09:09:56;;;;;;;14.35;11.02;;;18.70;99.90;;;;;;5011933;28;20037;-78
2021/09/27 09:12:31;;;;;;;14.30;10.75;;;18.60;99.90;;;;;;5010933;28;20049;-78
2021/09/27 09:15:06;;;;;;;14.27;11.85;;;18.50;99.90;;;;;;5012357;28;20041;-78
2021/09/27 09:17:46;;;;;;;10.75;9.48;;;18.40;99.90;;;;;;5012853;28;20030;-78
2021/09/27 09:20:19;;;;;;;12.02;10.38;;;18.80;99.90;;;;;;5011789;28;20121;-78
2021/09/27 09:22:47;;;;;;;11.52;10.20;;;19.10;99.90;;;;;;5013489;28;20037;-77
2021/09/27 09:25:38;;;;;;;13.45;9.50;;;19.60;99.90;;;;;;5012492;28;20037;-78
2021/09/27 09:28:08;;;;;;;11.23;9.13;;;20.10;99.90;;;;;;5012381;28;20060;-78
2021/09/27 09:30:51;;;;;;;11.70;8.00;;;20.40;99.90;;;;;;5011428;28;20034;-78
2021/09/27 09:33:37;;;;;;;11.75;7.57;;;20.60;99.90;;;;;;4995042;28;20034;-78
2021/09/27 09:36:04;;;;;;;12.07;7.63;;;21.20;99.90;;;;;;5011776;28;20049;-78
2021/09/27 09:38:33;;;;;;;9.75;6.97;;;21.80;99.90;;;;;;5011210;28;20037;-77
2021/09/27 09:40:59;;;;;;;10.63;7.93;;;21.70;99.90;;;;;;5011953;28;20022;-78
2021/09/27 09:43:28;;;;;;;8.93;8.00;;;21.70;99.90;;;;;;5012854;28;20052;-78
2021/09/27 09:46:22;;;;;;;8.85;8.00;;;21.80;99.90;;;;;;5011268;28;20026;-79
2021/09/27 09:49:16;;;;;;;10.70;7.75;;;21.70;99.90;;;;;;5012683;28;20041;-79
2021/09/27 09:51:46;;;;;;;7.60;6.78;;;21.40;99.90;;;;;;5012593;28;20083;-79
2021/09/27 09:54:38;;;;;;;8.43;7.47;;;21.20;99.90;;;;;;5011188;28;20032;-81
2021/09/27 09:57:20;;;;;;;8.10;6.90;;;21.20;99.90;;;;;;5011166;28;20458;-78
2021/09/27 10:00:00;;;;;;;7.22;6.38;;;21.80;99.90;;;;;;5011226;28;20054;-77
2021/09/27 10:02:27;;;;;;;10.13;7.30;;;22.40;99.90;;;;;;5010830;28;20034;-77
2021/09/27 10:05:08;;;;;;;8.48;6.82;;;22.00;99.90;;;;;;4995134;28;20103;-78
2021/09/27 10:07:57;;;;;;;7.47;6.40;;;21.80;99.90;;;;;;5010860;28;20052;-77
2021/09/27 10:10:42;;;;;;;7.85;6.65;;;21.60;99.90;;;;;;4994472;28;20034;-78
2021/09/27 10:13:28;;;;;;;8.95;7.18;;;21.70;99.90;;;;;;5011257;28;20049;-79
2021/09/27 10:15:54;;;;;;;9.77;6.75;;;22.00;99.90;;;;;;5011267;28;20359;-78
2021/09/27 10:18:31;;;;;;;9.65;5.45;;;22.60;99.90;;;;;;5010839;28;20359;-79
2021/09/27 10:21:06;;;;;;;9.55;6.47;;;22.80;99.90;;;;;;4994768;28;20030;-77
2021/09/27 10:23:37;;;;;;;8.52;6.70;;;22.80;99.90;;;;;;5011674;28;20029;-79
2021/09/27 10:26:30;;;;;;;6.90;6.20;;;22.70;99.90;;;;;;5011351;28;20025;-80
2021/09/27 10:29:30;;;;;;;11.13;6.30;;;22.80;99.90;;;;;;5011295;28;20110;-78
2021/09/27 10:32:01;;;;;;;8.30;5.65;;;23.00;99.90;;;;;;4989647;28;20037;-79
2021/09/27 10:34:31;;;;;;;9.00;6.50;;;22.80;99.90;;;;;;5010331;28;20092;-78
2021/09/27 10:37:19;;;;;;;7.57;6.20;;;23.00;99.90;;;;;;5011130;28;20144;-78
2021/09/27 10:39:53;;;;;;;8.77;6.03;;;23.00;99.90;;;;;;5010835;28;20032;-80
2021/09/27 10:42:25;;;;;;;7.85;6.00;;;23.30;99.90;;;;;;5009364;28;20471;-79
2021/09/27 10:44:54;;;;;;;8.50;6.03;;;23.70;99.90;;;;;;4993357;28;20461;-79
2021/09/27 10:47:25;;;;;;;7.97;5.90;;;23.80;99.90;;;;;;4992635;28;20096;-79
2021/09/27 10:50:17;;;;;;;;;;;23.70;99.90;;;;;;4993470;28;20026;-78
2021/09/27 10:53:01;;;;;;;6.50;5.90;;;23.40;99.90;;;;;;5002087;28;19912;-79
2021/09/27 10:55:34;;;;;;;6.65;5.60;;;23.50;99.90;;;;;;4991996;28;20038;-79
2021/09/27 10:58:08;;;;;;;7.10;5.70;;;23.70;99.90;;;;;;4992510;28;20037;-78
2021/09/27 11:00:53;;;;;;;9.15;7.47;;;24.30;99.90;;;;;;4992118;28;20046;-78
2021/09/27 11:03:41;;;;;;;6.50;5.82;;;23.90;99.90;;;;;;4992421;28;20030;-77
2021/09/27 11:06:37;;;;;;;7.30;6.60;;;24.20;99.90;;;;;;5009072;28;20042;-76
2021/09/27 11:09:21;;;;;;;9.40;6.05;;;23.90;99.90;;;;;;4992991;28;20025;-78
2021/09/27 11:11:59;;;;;;;7.85;6.57;;;24.20;99.90;;;;;;4992509;28;20033;-78
2021/09/27 11:14:40;;;;;;;7.53;6.72;;;25.00;99.90;;;;;;4991944;28;20510;-79
2021/09/27 11:17:06;;;;;;;8.80;7.25;;;25.00;99.90;;;;;;4993036;28;20078;-77
2021/09/27 11:19:37;;;;;;;7.88;7.07;;;24.70;99.90;;;;;;5009881;28;20088;-78
2021/09/27 11:22:20;;;;;;;8.48;7.57;;;24.50;99.90;;;;;;5010458;28;20071;-78
2021/09/27 11:24:50;;;;;;;11.02;7.20;;;24.50;99.90;;;;;;5029125;28;20045;-79
2021/09/27 11:27:16;;;;;;;10.63;7.50;;;24.50;99.90;;;;;;5012169;28;20038;-79
2021/09/27 11:29:55;;;;;;;9.02;6.90;;;23.90;99.90;;;;;;5011502;28;20147;-79
2021/09/27 11:32:43;;;;;;;7.88;6.75;;;23.60;99.90;;;;;;5011611;28;20166;-79
2021/09/27 11:35:21;;;;;;;8.05;7.13;;;23.50;99.90;;;;;;5011827;28;20569;-79
2021/09/27 11:37:47;;;;;;;9.85;6.70;;;23.40;99.90;;;;;;5028582;28;20454;-79
2021/09/27 11:40:21;;;;;;;9.93;6.70;;;23.40;99.90;;;;;;5011933;28;20029;-78
2021/09/27 11:43:06;;;;;;;7.70;6.90;;;23.40;99.90;;;;;;5028198;28;20033;-79
2021/09/27 11:45:49;;;;;;;7.50;6.65;;;23.90;99.90;;;;;;5027392;28;20048;-66
2021/09/27 11:48:18;;;;;;;8.15;6.53;;;23.90;99.90;;;;;;5012021;28;20144;-66
2021/09/27 11:50:53;;;;;;;7.30;6.40;;;24.00;99.90;;;;;;5011196;28;20034;-67
2021/09/27 11:53:59;;;;;;;6.43;5.88;;;24.00;99.90;;;;;;5011411;28;20022;-69
2021/09/27 11:56:53;;;;;;;7.50;5.90;;;24.10;99.90;;;;;;5008392;28;20034;-68
2021/09/27 11:59:39;;;;;;;8.98;5.95;;;24.10;99.90;;;;;;5010141;28;20072;-70
2021/09/27 12:02:39;;;;;;;7.63;5.57;;;24.10;99.90;;;;;;5009670;28;20498;-68
2021/09/27 12:05:22;;;;;;;7.80;5.55;;;24.20;99.90;;;;;;5009149;28;20056;-67
2021/09/27 12:07:59;;;;;;;9.90;5.50;;;24.00;99.90;;;;;;5010988;28;20030;-68
2021/09/27 12:10:41;;;;;;;8.27;5.72;;;23.80;99.90;;;;;;5008872;28;20030;-68
2021/09/27 12:13:39;;;;;;;10.05;6.25;;;23.50;99.90;;;;;;5011010;28;20084;-68
2021/09/27 12:16:11;;;;;;;9.52;5.80;;;23.10;99.90;;;;;;5009524;28;20034;-67
2021/09/27 12:18:44;;;;;;;5.82;5.18;;;22.80;99.90;;;;;;5008940;28;20029;-68
2021/09/27 12:21:24;;;;;;;6.22;5.40;;;22.70;99.90;;;;;;5009060;28;20041;-69
2021/09/27 12:23:58;;;;;;;8.05;5.13;;;22.50;99.90;;;;;;5010899;28;20386;-67
2021/09/27 12:26:26;;;;;;;6.63;6.03;;;22.30;99.90;;;;;;5008552;28;20033;-67
2021/09/27 12:29:14;;;;;;;7.18;5.32;;;22.30;99.90;;;;;;5010419;28;20125;-68
2021/09/27 12:31:55;;;;;;;15.93;5.95;;;22.30;99.90;;;;;;5008442;28;20282;-67
2021/09/27 12:34:32;;;;;;;16.77;6.10;;;22.20;99.90;;;;;;5010685;28;20084;-67
2021/09/27 12:36:58;;;;;;;5.93;5.32;;;22.20;99.90;;;;;;5010809;28;20022;-68
2021/09/27 12:39:28;;;;;;;5.95;5.18;;;22.00;99.90;;;;;;5009848;28;20105;-67
2021/09/27 12:41:56;;;;;;;5.75;4.95;;;22.00;99.90;;;;;;5008974;28;20030;-68
2021/09/27 12:44:28;;;;;;;6.45;4.78;;;21.90;99.90;;;;;;5008329;28;20069;-67
2021/09/27 12:46:59;;;;;;;6.20;5.22;;;21.90;99.90;;;;;;5010771;28;20459;-67
2021/09/27 12:49:48;;;;;;;9.18;6.15;;;22.00;99.90;;;;;;5012127;28;20105;-69
2021/09/27 12:52:49;;;;;;;6.55;5.75;;;21.90;99.90;;;;;;5012650;28;20379;-68
2021/09/27 12:55:20;;;;;;;5.45;4.95;;;22.00;99.90;;;;;;4999449;28;20108;-68
2021/09/27 12:57:50;;;;;;;8.20;4.68;;;22.10;99.90;;;;;;5013141;28;20447;-70
2021/09/27 13:00:35;;;;;;;7.70;4.65;;;22.30;99.90;;;;;;5013353;28;20081;-68
2021/09/27 13:03:07;;;;;;;8.75;5.18;;;22.60;99.90;;;;;;5012348;28;20108;-68
2021/09/27 13:05:59;;;;;;;8.00;5.00;;;22.70;99.90;;;;;;5011450;28;20030;-68
2021/09/27 13:08:49;;;;;;;6.78;4.65;;;22.50;99.90;;;;;;4993213;28;20108;-67
2021/09/27 13:11:33;;;;;;;5.33;4.83;;;22.50;99.90;;;;;;5013528;28;20116;-68
2021/09/27 13:14:20;;;;;;;5.45;4.95;;;22.30;99.90;;;;;;5012107;28;20503;-68
2021/09/27 13:16:49;;;;;;;7.45;5.32;;;22.20;99.90;;;;;;5013032;28;20025;-68
2021/09/27 13:19:33;;;;;;;6.90;4.85;;;22.10;99.90;;;;;;5013159;28;20412;-67
2021/09/27 13:21:59;;;;;;;7.22;4.93;;;22.20;99.90;;;;;;5011654;28;20032;-68
2021/09/27 13:24:29;;;;;;;6.65;5.07;;;22.10;99.90;;;;;;5012545;28;20105;-68